Time;durP1;ratioP1;P1;durP2;ratioP2;P2;SDS_P1;SDS_P2;PMS_P1;PMS_P2;Temp;Humidity;BMP_temperature;BMP_pressure;BME280_temperature;BME280_humidity;BME280_pressure;Samples;Min_cycle;Max_cycle;Signal;HPM_P1;HPM_P2
2022/07/16 00:01:26;;;;;;;3.97;1.73;;;18.80;92.40;;;;;;5104613;28;20035;-70
2022/07/16 00:03:57;;;;;;;4.00;1.70;;;18.80;92.70;;;;;;5106436;28;20475;-70
2022/07/16 00:06:25;;;;;;;3.53;1.63;;;18.70;92.70;;;;;;5107867;28;20493;-71
2022/07/16 00:08:51;;;;;;;5.07;1.90;;;18.70;92.70;;;;;;5105064;28;20039;-71
2022/07/16 00:11:17;;;;;;;3.80;1.95;;;18.80;92.80;;;;;;5104511;28;20048;-71
2022/07/16 00:13:43;;;;;;;3.05;1.50;;;18.70;92.80;;;;;;5108928;28;20048;-71
2022/07/16 00:16:10;;;;;;;5.45;1.90;;;18.70;92.80;;;;;;5106711;28;20075;-70
2022/07/16 00:21:21;;;;;;;3.92;1.70;;;18.60;92.90;;;;;;5105074;28;20051;-69
2022/07/16 00:23:47;;;;;;;3.53;1.77;;;18.60;93.00;;;;;;5109197;28;20066;-69
2022/07/16 00:26:12;;;;;;;5.25;2.10;;;18.60;93.30;;;;;;5098213;28;20475;-69
2022/07/16 00:28:38;;;;;;;4.38;1.65;;;18.60;93.20;;;;;;5113058;28;20163;-69
2022/07/16 00:31:04;;;;;;;5.22;2.10;;;18.60;93.30;;;;;;5112475;28;20051;-70
2022/07/16 00:33:29;;;;;;;3.70;2.00;;;18.60;93.30;;;;;;5112537;28;20036;-69
2022/07/16 00:35:55;;;;;;;3.95;1.90;;;18.60;93.40;;;;;;5108442;28;20189;-68
2022/07/16 00:38:21;;;;;;;4.97;2.00;;;18.50;93.50;;;;;;5115274;28;20118;-69
2022/07/16 00:40:47;;;;;;;4.53;1.90;;;18.50;93.60;;;;;;5110614;28;20170;-70
2022/07/16 00:43:14;;;;;;;5.72;2.28;;;18.50;93.70;;;;;;5113219;28;20192;-69
2022/07/16 00:45:40;;;;;;;5.40;2.10;;;18.40;93.70;;;;;;5110475;28;20172;-70
2022/07/16 00:48:06;;;;;;;5.30;2.00;;;18.50;93.90;;;;;;5113208;28;20173;-70
2022/07/16 00:50:34;;;;;;;4.45;1.98;;;18.50;94.00;;;;;;5112782;28;20043;-69
2022/07/16 00:53:01;;;;;;;5.15;1.98;;;18.50;94.40;;;;;;5113477;28;20073;-70
2022/07/16 00:55:27;;;;;;;6.07;2.10;;;18.40;94.30;;;;;;5114948;28;20056;-69
2022/07/16 00:57:54;;;;;;;3.85;1.80;;;18.50;94.50;;;;;;5111675;28;20046;-69
2022/07/16 01:00:19;;;;;;;4.20;2.03;;;18.40;94.60;;;;;;5111830;27;20046;-69
2022/07/16 01:02:45;;;;;;;4.35;1.98;;;18.40;94.80;;;;;;5109385;28;20044;-70
2022/07/16 01:05:11;;;;;;;4.53;2.15;;;18.40;94.90;;;;;;5113700;28;20082;-68
2022/07/16 01:07:36;;;;;;;3.67;1.77;;;18.40;95.00;;;;;;5113823;28;20069;-69
2022/07/16 01:10:04;;;;;;;6.63;2.30;;;18.50;95.10;;;;;;5113162;28;20814;-69
2022/07/16 01:12:30;;;;;;;6.45;2.28;;;18.50;95.30;;;;;;5115502;28;20094;-69
2022/07/16 01:14:57;;;;;;;3.78;1.73;;;18.50;95.40;;;;;;5110923;28;20225;-69
2022/07/16 01:17:23;;;;;;;5.85;2.17;;;18.50;95.60;;;;;;5108815;28;20390;-70
2022/07/16 01:19:49;;;;;;;4.75;1.90;;;18.50;95.70;;;;;;5112511;28;20048;-69
2022/07/16 01:22:23;;;;;;;5.65;2.03;;;18.50;95.80;;;;;;5114901;28;20043;-70
2022/07/16 01:24:50;;;;;;;4.13;2.00;;;18.50;96.00;;;;;;5115305;28;20044;-69
2022/07/16 01:27:17;;;;;;;4.13;1.80;;;18.50;96.10;;;;;;5112671;28;20162;-70
2022/07/16 01:29:43;;;;;;;2.95;1.73;;;18.50;96.20;;;;;;5114214;27;20048;-69
2022/07/16 01:32:09;;;;;;;4.68;1.90;;;18.50;96.40;;;;;;5109946;27;20490;-71
2022/07/16 01:34:35;;;;;;;4.25;1.80;;;18.50;97.00;;;;;;5113032;28;20080;-71
2022/07/16 01:37:06;;;;;;;5.22;1.90;;;18.50;97.50;;;;;;5112173;28;20210;-70
2022/07/16 01:39:33;;;;;;;6.35;2.10;;;18.50;99.40;;;;;;5107433;28;20127;-68
2022/07/16 01:42:01;;;;;;;4.30;1.92;;;18.40;99.90;;;;;;5105518;28;20043;-67
2022/07/16 01:44:28;;;;;;;6.10;2.30;;;18.20;99.90;;;;;;5107167;28;20044;-68
2022/07/16 01:46:56;;;;;;;6.32;2.35;;;18.20;99.90;;;;;;5107745;28;20470;-68
2022/07/16 01:49:22;;;;;;;5.18;2.33;;;18.20;99.90;;;;;;5109781;28;20039;-68
2022/07/16 01:51:48;;;;;;;5.80;2.45;;;18.10;99.90;;;;;;5111414;28;20090;-68
2022/07/16 01:54:14;;;;;;;8.73;2.90;;;18.10;99.90;;;;;;5111828;28;20044;-69
2022/07/16 01:56:40;;;;;;;7.10;2.70;;;18.10;99.90;;;;;;5110680;28;20040;-68
2022/07/16 01:59:06;;;;;;;4.88;2.70;;;18.00;99.90;;;;;;5110485;28;20128;-68
2022/07/16 02:01:32;;;;;;;4.75;2.50;;;18.00;99.90;;;;;;5108235;28;20428;-68
2022/07/16 02:03:58;;;;;;;7.45;3.20;;;17.90;99.90;;;;;;5107963;28;20043;-68
2022/07/16 02:06:23;;;;;;;7.15;2.80;;;17.90;99.90;;;;;;5110961;28;20370;-68
2022/07/16 02:08:49;;;;;;;7.65;2.72;;;17.80;99.90;;;;;;5110186;28;20039;-68
2022/07/16 02:11:14;;;;;;;11.60;3.10;;;17.80;99.90;;;;;;5108471;28;20036;-70
2022/07/16 02:13:42;;;;;;;5.90;2.65;;;17.80;99.90;;;;;;5109932;28;20047;-68
2022/07/16 02:16:08;;;;;;;8.02;2.50;;;17.70;99.90;;;;;;5107312;28;20576;-68
2022/07/16 02:18:33;;;;;;;6.47;2.47;;;17.70;99.90;;;;;;5110375;28;20039;-68
2022/07/16 02:20:59;;;;;;;6.38;2.38;;;17.60;99.90;;;;;;5108612;28;20636;-67
2022/07/16 02:23:25;;;;;;;4.72;2.20;;;17.60;99.90;;;;;;5110209;28;20051;-70
2022/07/16 02:25:50;;;;;;;6.65;2.08;;;17.50;99.90;;;;;;5107329;28;20036;-67
2022/07/16 02:28:16;;;;;;;7.00;2.10;;;17.50;99.90;;;;;;5108884;28;20058;-68
2022/07/16 02:30:44;;;;;;;5.25;1.90;;;17.50;99.90;;;;;;5106100;28;20074;-68
2022/07/16 02:33:11;;;;;;;5.75;1.95;;;17.40;99.90;;;;;;5100996;28;20048;-68
2022/07/16 02:35:37;;;;;;;6.50;1.80;;;17.40;99.90;;;;;;5107694;28;20054;-68
2022/07/16 02:38:03;;;;;;;6.13;1.90;;;17.40;99.90;;;;;;5104468;28;20138;-68
2022/07/16 02:40:29;;;;;;;4.18;1.58;;;17.40;99.90;;;;;;5105455;28;20036;-68
2022/07/16 02:42:55;;;;;;;6.63;1.50;;;17.40;99.90;;;;;;5108003;28;20058;-68
2022/07/16 02:45:21;;;;;;;5.18;1.40;;;17.30;99.90;;;;;;5107424;28;20134;-69
2022/07/16 02:47:47;;;;;;;5.25;1.70;;;17.20;99.90;;;;;;5108913;28;20603;-69
2022/07/16 02:50:13;;;;;;;3.95;1.50;;;17.30;99.90;;;;;;5108060;28;20043;-68
2022/07/16 02:52:38;;;;;;;4.55;1.60;;;17.30;99.90;;;;;;5107823;28;20040;-69
2022/07/16 02:55:05;;;;;;;7.60;1.70;;;17.30;99.90;;;;;;5109656;28;20147;-69
2022/07/16 02:57:31;;;;;;;6.15;1.60;;;17.20;99.90;;;;;;5107966;28;20043;-69
2022/07/16 02:59:57;;;;;;;6.70;1.90;;;17.20;99.90;;;;;;5101812;28;20055;-68
2022/07/16 03:02:22;;;;;;;4.30;1.60;;;17.30;99.90;;;;;;5105072;28;20048;-69
2022/07/16 03:04:48;;;;;;;6.53;1.80;;;17.20;99.90;;;;;;5109732;28;20043;-68
2022/07/16 03:07:14;;;;;;;3.92;1.80;;;17.20;99.90;;;;;;5108948;28;20038;-68
2022/07/16 03:09:40;;;;;;;5.10;1.80;;;17.20;99.90;;;;;;5107151;28;20032;-68
2022/07/16 03:12:05;;;;;;;5.85;1.52;;;17.20;99.90;;;;;;5107531;28;20448;-68
2022/07/16 03:14:31;;;;;;;4.78;1.50;;;17.10;99.90;;;;;;5104485;28;20062;-68
2022/07/16 03:16:56;;;;;;;4.25;1.70;;;17.20;99.90;;;;;;5107338;28;20075;-68
2022/07/16 03:19:22;;;;;;;5.78;1.80;;;17.20;99.90;;;;;;5108445;28;20118;-68
2022/07/16 03:21:48;;;;;;;6.35;1.70;;;17.20;99.90;;;;;;5107670;28;20132;-68
2022/07/16 03:24:13;;;;;;;4.40;1.85;;;17.10;99.90;;;;;;5109708;28;20382;-68
2022/07/16 03:26:39;;;;;;;6.10;1.70;;;17.10;99.90;;;;;;5107105;28;20104;-69
2022/07/16 03:29:04;;;;;;;5.93;1.95;;;17.10;99.90;;;;;;5108820;28;20035;-69
2022/07/16 03:31:30;;;;;;;6.20;1.98;;;17.00;99.90;;;;;;5104447;28;20056;-68
2022/07/16 03:33:55;;;;;;;7.55;1.73;;;17.00;99.90;;;;;;5096207;28;20032;-68
2022/07/16 03:36:22;;;;;;;5.47;1.75;;;17.00;99.90;;;;;;5105207;28;20040;-68
2022/07/16 03:38:59;;;;;;;6.43;1.70;;;17.00;99.90;;;;;;5110230;28;20108;-68
2022/07/16 03:41:25;;;;;;;4.93;1.60;;;17.00;99.90;;;;;;5097475;28;20126;-68
2022/07/16 03:43:51;;;;;;;5.38;1.90;;;17.00;99.90;;;;;;5102523;28;20173;-68
2022/07/16 03:46:17;;;;;;;4.60;1.60;;;17.00;99.90;;;;;;5107070;28;20141;-68
2022/07/16 03:48:43;;;;;;;6.25;1.70;;;17.00;99.90;;;;;;5102346;28;20112;-69
2022/07/16 03:51:09;;;;;;;4.40;1.73;;;17.00;99.90;;;;;;5104117;28;20096;-68
2022/07/16 03:53:35;;;;;;;8.43;1.90;;;17.00;99.90;;;;;;5102738;28;20047;-68
2022/07/16 03:56:01;;;;;;;5.13;1.80;;;17.10;99.90;;;;;;5107474;28;20128;-68
2022/07/16 03:58:27;;;;;;;5.15;1.73;;;17.10;99.90;;;;;;5110889;28;20444;-68
2022/07/16 04:00:53;;;;;;;7.50;1.90;;;17.10;99.90;;;;;;5099595;28;20465;-69
2022/07/16 04:03:19;;;;;;;5.95;1.73;;;17.10;99.90;;;;;;5106034;28;20388;-69
2022/07/16 04:05:44;;;;;;;5.97;1.88;;;17.10;99.90;;;;;;5089592;28;20101;-69
2022/07/16 04:08:10;;;;;;;5.03;1.80;;;17.10;99.90;;;;;;5105268;28;20039;-69
2022/07/16 04:10:36;;;;;;;4.95;1.80;;;17.10;99.90;;;;;;5104771;28;20050;-69
2022/07/16 04:13:02;;;;;;;6.50;2.08;;;17.10;99.90;;;;;;5104730;28;20032;-69
2022/07/16 04:15:27;;;;;;;5.07;1.55;;;17.10;99.90;;;;;;5104510;28;20423;-69
2022/07/16 04:17:53;;;;;;;3.50;1.60;;;17.20;99.90;;;;;;5106418;28;20101;-69
2022/07/16 04:20:19;;;;;;;3.90;1.63;;;17.20;99.90;;;;;;5106901;28;20039;-69
2022/07/16 04:22:45;;;;;;;4.65;1.67;;;17.30;99.90;;;;;;5086785;28;20355;-69
2022/07/16 04:25:13;;;;;;;4.22;1.73;;;17.20;99.90;;;;;;5107032;28;20042;-69
2022/07/16 04:27:39;;;;;;;4.22;1.90;;;17.20;99.90;;;;;;5101419;28;20093;-68
2022/07/16 04:30:06;;;;;;;5.53;1.65;;;17.10;99.90;;;;;;5103591;28;20166;-68
2022/07/16 04:32:31;;;;;;;4.57;1.80;;;17.10;99.90;;;;;;5090845;28;20047;-69
2022/07/16 04:34:57;;;;;;;4.40;1.70;;;17.10;99.90;;;;;;5101101;28;20039;-68
2022/07/16 04:37:22;;;;;;;4.68;1.73;;;17.00;99.90;;;;;;5103936;28;20035;-68
2022/07/16 04:39:48;;;;;;;4.75;1.50;;;17.00;99.90;;;;;;5100805;28;20112;-69
2022/07/16 04:42:13;;;;;;;4.20;1.77;;;17.00;99.90;;;;;;5104731;28;20191;-69
2022/07/16 04:44:39;;;;;;;5.40;1.60;;;17.00;99.90;;;;;;5101711;28;20050;-69
2022/07/16 04:47:04;;;;;;;5.93;1.83;;;17.10;99.90;;;;;;5101429;28;20337;-69
2022/07/16 04:49:30;;;;;;;4.68;1.70;;;17.10;99.90;;;;;;5104142;28;20040;-69
2022/07/16 04:51:55;;;;;;;7.72;1.85;;;17.20;99.90;;;;;;5105143;28;20050;-69
2022/07/16 04:54:21;;;;;;;4.95;1.83;;;17.20;99.90;;;;;;5107987;28;20028;-69
2022/07/16 04:56:47;;;;;;;5.53;1.67;;;17.30;99.90;;;;;;5105502;28;20076;-69
2022/07/16 04:59:12;;;;;;;5.63;1.65;;;17.20;99.90;;;;;;5105983;28;20089;-69
2022/07/16 05:01:38;;;;;;;4.63;1.63;;;17.10;99.90;;;;;;5105115;28;20772;-69
2022/07/16 05:04:03;;;;;;;5.78;1.52;;;17.20;99.90;;;;;;5109336;28;20053;-69
2022/07/16 05:06:29;;;;;;;5.28;1.50;;;17.40;99.90;;;;;;5106004;28;20126;-69
2022/07/16 05:08:56;;;;;;;7.88;1.50;;;17.40;99.90;;;;;;5105949;28;20032;-68
2022/07/16 05:11:22;;;;;;;4.63;1.50;;;17.40;99.90;;;;;;5099682;28;20399;-69
2022/07/16 05:13:50;;;;;;;6.75;2.10;;;17.50;99.90;;;;;;5105936;28;21744;-69
2022/07/16 05:16:16;;;;;;;4.47;1.60;;;17.50;99.90;;;;;;5106392;28;20800;-69
2022/07/16 05:18:41;;;;;;;5.65;1.65;;;17.60;99.90;;;;;;5109601;28;20036;-69
2022/07/16 05:21:07;;;;;;;8.48;1.67;;;17.60;99.90;;;;;;5108677;28;20071;-69
2022/07/16 05:23:34;;;;;;;5.70;1.60;;;17.60;99.90;;;;;;5109100;28;20074;-69
2022/07/16 05:25:59;;;;;;;7.00;2.05;;;17.60;99.90;;;;;;5101898;28;20035;-68
2022/07/16 05:28:25;;;;;;;4.47;1.50;;;17.70;99.90;;;;;;5105901;28;20084;-72
2022/07/16 05:30:51;;;;;;;6.28;1.88;;;17.80;99.90;;;;;;5105088;28;20554;-70
2022/07/16 05:33:17;;;;;;;5.72;1.50;;;17.90;99.90;;;;;;5104950;28;20036;-70
2022/07/16 05:35:42;;;;;;;4.88;1.52;;;17.90;99.90;;;;;;5106942;28;20087;-70
2022/07/16 05:38:08;;;;;;;5.75;2.00;;;18.10;99.90;;;;;;5104692;28;20471;-70
2022/07/16 05:40:34;;;;;;;7.22;1.33;;;18.20;99.90;;;;;;5104864;28;22003;-70
2022/07/16 05:42:59;;;;;;;4.43;1.35;;;18.20;99.90;;;;;;5102860;28;20072;-70
2022/07/16 05:45:25;;;;;;;7.35;1.52;;;18.30;99.90;;;;;;5103576;28;20046;-71
2022/07/16 05:47:50;;;;;;;3.97;1.50;;;18.50;99.90;;;;;;5103360;28;20048;-70
2022/07/16 05:50:16;;;;;;;4.95;1.33;;;18.50;99.90;;;;;;5104487;28;20040;-71
2022/07/16 05:52:42;;;;;;;4.97;1.45;;;18.50;99.90;;;;;;5103293;28;20226;-71
2022/07/16 05:55:08;;;;;;;4.63;1.05;;;18.60;99.90;;;;;;5102032;28;20046;-70
2022/07/16 05:57:34;;;;;;;3.55;1.23;;;18.50;99.90;;;;;;5102834;28;20039;-70
2022/07/16 05:59:59;;;;;;;7.63;1.38;;;18.60;99.90;;;;;;5103323;28;20044;-70
2022/07/16 06:02:25;;;;;;;4.57;1.42;;;18.50;99.90;;;;;;5100471;28;20077;-69
2022/07/16 06:04:51;;;;;;;4.68;1.00;;;18.50;99.90;;;;;;5101283;28;20047;-69
2022/07/16 06:07:16;;;;;;;5.30;1.38;;;18.40;99.90;;;;;;5105104;28;20167;-70
2022/07/16 06:09:42;;;;;;;5.65;1.20;;;18.30;99.90;;;;;;5102189;28;20531;-70
2022/07/16 06:12:08;;;;;;;4.78;1.20;;;18.40;99.90;;;;;;5104517;28;20127;-71
2022/07/16 06:14:33;;;;;;;4.25;1.30;;;18.50;99.90;;;;;;5103608;28;20044;-70
2022/07/16 06:16:59;;;;;;;4.68;1.10;;;18.50;99.90;;;;;;5107504;28;20398;-70
2022/07/16 06:19:24;;;;;;;4.90;1.17;;;18.40;99.90;;;;;;5108238;28;20391;-71
2022/07/16 06:21:50;;;;;;;4.53;1.45;;;18.50;99.90;;;;;;5108907;28;20147;-70
2022/07/16 06:24:15;;;;;;;4.07;1.20;;;18.50;99.90;;;;;;5108167;28;20038;-71
2022/07/16 06:26:47;;;;;;;6.68;1.60;;;18.60;99.90;;;;;;5106128;28;20427;-71
2022/07/16 06:29:16;;;;;;;8.07;1.13;;;18.80;99.90;;;;;;5102160;28;20095;-74
2022/07/16 06:31:43;;;;;;;4.47;1.10;;;18.90;99.90;;;;;;5108732;28;20043;-76
2022/07/16 06:34:09;;;;;;;5.47;1.35;;;18.80;99.90;;;;;;5100706;28;20047;-72
2022/07/16 06:36:34;;;;;;;5.90;1.40;;;18.80;99.90;;;;;;5105874;28;20519;-70
2022/07/16 06:39:00;;;;;;;4.90;1.05;;;18.80;99.90;;;;;;5100659;28;20039;-71
2022/07/16 06:41:26;;;;;;;4.97;1.20;;;18.80;99.90;;;;;;5108414;28;20071;-70
2022/07/16 06:43:51;;;;;;;6.03;1.38;;;18.90;99.80;;;;;;5109549;28;20059;-70
2022/07/16 06:46:17;;;;;;;6.35;1.15;;;18.90;99.70;;;;;;5107495;27;20043;-70
2022/07/16 06:48:42;;;;;;;4.82;1.13;;;18.90;99.60;;;;;;5108252;28;20054;-70
2022/07/16 06:51:08;;;;;;;6.38;1.20;;;18.90;98.90;;;;;;5102398;28;20035;-70
2022/07/16 06:53:38;;;;;;;7.47;1.05;;;19.00;98.60;;;;;;5100123;28;20077;-69
2022/07/16 06:56:04;;;;;;;7.03;1.40;;;19.00;98.50;;;;;;5106805;28;20051;-67
2022/07/16 06:58:29;;;;;;;5.55;1.00;;;19.00;98.30;;;;;;5104263;28;20039;-68
2022/07/16 07:00:55;;;;;;;4.78;1.00;;;18.90;97.70;;;;;;5105965;27;20103;-68
2022/07/16 07:03:21;;;;;;;3.38;1.10;;;18.90;97.20;;;;;;5114314;27;20044;-68
2022/07/16 07:05:46;;;;;;;5.65;1.17;;;18.90;97.30;;;;;;5108749;28;20039;-68
2022/07/16 07:08:12;;;;;;;3.67;0.98;;;19.20;97.50;;;;;;5109268;28;20124;-68
2022/07/16 07:10:37;;;;;;;3.83;0.73;;;19.30;97.40;;;;;;5109573;28;20048;-68
2022/07/16 07:13:03;;;;;;;6.43;1.00;;;19.40;96.80;;;;;;5104645;28;20036;-68
2022/07/16 07:15:29;;;;;;;5.55;1.10;;;19.50;96.50;;;;;;5108469;28;20103;-68
2022/07/16 07:17:54;;;;;;;5.13;1.10;;;19.40;96.20;;;;;;5103067;28;20135;-70
2022/07/16 07:20:20;;;;;;;4.50;0.88;;;19.50;96.00;;;;;;5098344;28;20469;-71
2022/07/16 07:22:45;;;;;;;9.35;1.45;;;19.80;96.10;;;;;;5101253;28;20332;-71
2022/07/16 07:25:11;;;;;;;4.95;1.20;;;19.50;94.80;;;;;;5105440;28;20104;-71
2022/07/16 07:27:37;;;;;;;7.00;1.02;;;19.70;95.00;;;;;;5097557;28;20452;-74
2022/07/16 07:30:04;;;;;;;5.93;1.10;;;19.70;95.10;;;;;;5107094;28;20046;-75
2022/07/16 07:32:29;;;;;;;4.40;1.10;;;19.40;95.30;;;;;;5108337;28;20058;-69
2022/07/16 07:34:55;;;;;;;4.90;1.08;;;19.30;95.60;;;;;;5104776;28;20067;-72
2022/07/16 07:37:21;;;;;;;7.20;1.50;;;19.20;95.60;;;;;;5120786;27;20139;-72
2022/07/16 07:39:46;;;;;;;5.78;1.05;;;19.00;95.70;;;;;;5108888;28;20044;-69
2022/07/16 07:42:12;;;;;;;5.82;1.10;;;19.10;95.70;;;;;;5099389;28;20028;-70
2022/07/16 07:44:38;;;;;;;4.35;1.02;;;19.00;95.50;;;;;;5101255;28;20143;-69
2022/07/16 07:47:04;;;;;;;5.47;1.20;;;19.00;95.80;;;;;;5101356;28;20112;-70
2022/07/16 07:49:30;;;;;;;5.28;1.02;;;19.00;95.80;;;;;;5104123;28;20111;-71
2022/07/16 07:51:56;;;;;;;5.38;1.15;;;19.10;95.70;;;;;;5105460;28;20059;-71
2022/07/16 07:54:21;;;;;;;4.30;0.90;;;19.00;95.80;;;;;;5103603;28;20560;-71
2022/07/16 07:56:50;;;;;;;5.15;0.85;;;19.10;95.90;;;;;;5103652;28;20485;-71
2022/07/16 07:59:16;;;;;;;4.78;1.10;;;19.20;95.80;;;;;;5104486;28;20193;-72
2022/07/16 08:01:42;;;;;;;6.32;1.10;;;19.30;95.50;;;;;;5104816;28;20193;-72
2022/07/16 08:04:09;;;;;;;5.68;1.17;;;19.50;95.10;;;;;;5105615;28;20059;-71
2022/07/16 08:06:35;;;;;;;5.68;1.15;;;19.50;95.00;;;;;;5099654;28;20119;-71
2022/07/16 08:09:00;;;;;;;6.28;1.30;;;19.60;94.70;;;;;;5109516;28;20074;-70
2022/07/16 08:11:26;;;;;;;4.82;1.00;;;19.80;94.40;;;;;;5108595;28;20036;-71
2022/07/16 08:13:52;;;;;;;7.50;1.52;;;20.00;94.10;;;;;;5108502;28;20051;-71
2022/07/16 08:16:17;;;;;;;5.75;1.17;;;20.20;93.90;;;;;;5102201;28;20342;-72
2022/07/16 08:18:43;;;;;;;4.78;1.23;;;20.10;93.80;;;;;;5108083;28;20124;-71
2022/07/16 08:21:08;;;;;;;4.82;1.20;;;19.90;93.30;;;;;;5107891;28;20036;-72
2022/07/16 08:26:19;;;;;;;4.50;1.00;;;20.20;92.40;;;;;;5106456;28;20110;-71
2022/07/16 08:28:44;;;;;;;5.50;1.05;;;20.20;91.90;;;;;;5109552;28;20076;-71
2022/07/16 08:31:11;;;;;;;4.28;1.23;;;20.20;91.60;;;;;;5097629;28;20047;-71
2022/07/16 08:33:36;;;;;;;4.15;0.90;;;20.20;91.00;;;;;;5108356;28;20055;-71
2022/07/16 08:36:02;;;;;;;5.63;1.00;;;20.30;90.70;;;;;;5105033;28;20389;-70
2022/07/16 08:38:28;;;;;;;6.03;1.10;;;20.50;90.70;;;;;;5105946;28;20047;-70
2022/07/16 08:40:55;;;;;;;2.90;0.73;;;20.20;90.60;;;;;;5107313;28;20039;-70
2022/07/16 08:43:22;;;;;;;5.75;1.02;;;20.00;90.00;;;;;;5105886;28;20055;-71
2022/07/16 08:45:49;;;;;;;3.00;0.85;;;19.70;89.70;;;;;;5106438;28;20171;-72
2022/07/16 08:48:15;;;;;;;4.90;0.90;;;19.50;89.20;;;;;;5106609;28;20451;-70
2022/07/16 08:50:42;;;;;;;5.28;1.00;;;19.70;90.20;;;;;;5104393;28;20194;-68
2022/07/16 08:53:08;;;;;;;5.03;0.75;;;20.20;90.30;;;;;;5109948;28;20048;-73
2022/07/16 08:55:37;;;;;;;4.80;0.88;;;20.70;89.70;;;;;;5110536;28;20039;-68
2022/07/16 08:58:06;;;;;;;4.10;0.85;;;20.70;86.90;;;;;;5111234;28;20121;-69
2022/07/16 09:00:32;;;;;;;4.15;0.70;;;20.80;85.20;;;;;;5104951;28;20051;-69
2022/07/16 09:02:58;;;;;;;5.18;1.05;;;20.70;84.20;;;;;;5106900;28;20046;-69
2022/07/16 09:05:24;;;;;;;3.45;0.90;;;20.60;83.10;;;;;;5110981;28;20031;-72
2022/07/16 09:07:51;;;;;;;2.83;0.70;;;20.60;83.80;;;;;;5108442;28;20480;-72
2022/07/16 09:10:16;;;;;;;3.63;0.90;;;21.00;83.30;;;;;;5101295;28;20131;-72
2022/07/16 09:12:42;;;;;;;5.38;0.93;;;21.30;82.60;;;;;;5103339;28;20119;-72
2022/07/16 09:15:27;;;;;;;4.25;0.77;;;21.30;80.20;;;;;;5110123;28;20431;-73
2022/07/16 09:18:10;;;;;;;;;;;21.20;80.50;;;;;;5106493;28;20123;-70
2022/07/16 09:20:38;;;;;;;3.00;1.00;;;21.00;81.50;;;;;;5090674;28;19942;-72
2022/07/16 09:23:15;;;;;;;4.50;1.00;;;20.90;81.00;;;;;;5108828;28;20066;-71
2022/07/16 09:25:53;;;;;;;4.90;1.17;;;21.10;80.40;;;;;;5103224;27;20039;-71
2022/07/16 09:28:20;;;;;;;3.13;0.95;;;21.40;78.50;;;;;;5105463;28;20116;-73
2022/07/16 09:30:46;;;;;;;6.57;1.10;;;21.60;78.30;;;;;;5103258;28;20059;-73
2022/07/16 09:33:17;;;;;;;4.20;0.90;;;21.60;74.70;;;;;;5103409;28;20063;-72
2022/07/16 09:35:43;;;;;;;2.78;0.70;;;21.50;74.60;;;;;;5104306;28;20059;-72
2022/07/16 09:38:10;;;;;;;3.50;0.98;;;21.30;74.70;;;;;;5110363;28;20466;-74
2022/07/16 09:40:40;;;;;;;3.08;0.70;;;21.30;73.30;;;;;;5104466;28;20043;-74
2022/07/16 09:43:18;;;;;;;2.90;0.63;;;21.60;73.00;;;;;;5106689;28;20047;-73
2022/07/16 09:45:47;;;;;;;5.30;1.05;;;21.80;73.20;;;;;;5105763;28;20051;-74
2022/07/16 09:48:28;;;;;;;3.10;0.70;;;21.70;73.30;;;;;;5108097;28;20043;-72
2022/07/16 09:50:56;;;;;;;5.00;1.00;;;21.80;74.20;;;;;;5107462;28;20536;-70
2022/07/16 09:53:25;;;;;;;5.68;1.33;;;22.00;74.50;;;;;;5107451;28;20046;-73
2022/07/16 09:56:11;;;;;;;6.38;1.05;;;22.10;73.20;;;;;;5108661;27;20138;-70
2022/07/16 09:58:37;;;;;;;4.80;1.45;;;22.30;72.60;;;;;;5104897;28;20131;-71
2022/07/16 10:01:05;;;;;;;5.15;0.88;;;22.30;72.80;;;;;;5105849;27;20110;-71
2022/07/16 10:03:31;;;;;;;5.60;1.45;;;22.30;73.70;;;;;;5107703;28;20443;-70
2022/07/16 10:05:56;;;;;;;4.63;0.95;;;22.50;73.90;;;;;;5112320;27;20130;-71
2022/07/16 10:08:23;;;;;;;6.55;1.00;;;22.30;72.30;;;;;;5110909;28;20114;-75
2022/07/16 10:10:49;;;;;;;2.97;0.80;;;22.20;72.70;;;;;;5107526;28;20069;-80
2022/07/16 10:13:16;;;;;;;6.28;1.10;;;22.20;73.40;;;;;;5103359;28;20398;-74
2022/07/16 10:15:43;;;;;;;4.40;0.90;;;22.30;72.40;;;;;;5109635;28;20051;-74
2022/07/16 10:18:35;;;;;;;3.78;0.88;;;22.60;71.10;;;;;;5107218;28;20188;-79
2022/07/16 10:21:07;;;;;;;6.15;1.40;;;22.50;71.90;;;;;;5107645;28;20043;-74
2022/07/16 10:23:35;;;;;;;7.88;1.02;;;22.40;72.00;;;;;;5108308;28;20478;-75
2022/07/16 10:26:08;;;;;;;5.60;0.80;;;22.40;71.90;;;;;;5103296;28;20096;-75
2022/07/16 10:28:43;;;;;;;4.80;1.15;;;22.40;71.80;;;;;;5107103;28;20043;-80
2022/07/16 10:31:38;;;;;;;3.10;0.73;;;22.30;71.40;;;;;;5107277;28;20229;-77
2022/07/16 10:34:13;;;;;;;3.85;0.88;;;22.50;70.20;;;;;;5095851;28;20036;-78
2022/07/16 10:36:46;;;;;;;5.82;1.15;;;22.80;71.00;;;;;;5100951;28;20074;-75
2022/07/16 10:39:15;;;;;;;3.08;0.88;;;23.10;69.30;;;;;;5104670;28;20039;-74
2022/07/16 10:41:54;;;;;;;4.03;1.00;;;23.20;69.20;;;;;;5103379;27;20047;-70
2022/07/16 10:44:22;;;;;;;3.55;0.73;;;23.10;66.30;;;;;;5097747;28;20486;-71
2022/07/16 10:46:57;;;;;;;5.32;0.98;;;23.00;68.10;;;;;;5099370;27;20078;-72
2022/07/16 10:49:25;;;;;;;3.42;0.90;;;22.90;67.80;;;;;;5103840;27;20047;-73
2022/07/16 10:52:00;;;;;;;3.63;0.90;;;23.00;68.70;;;;;;5102991;28;20402;-70
2022/07/16 10:54:59;;;;;;;3.70;1.00;;;23.00;69.60;;;;;;5102251;28;20395;-71
2022/07/16 10:57:37;;;;;;;5.03;0.98;;;22.90;69.10;;;;;;5109128;28;20405;-71
2022/07/16 11:00:06;;;;;;;3.78;0.90;;;22.90;68.40;;;;;;5109939;28;20118;-71
2022/07/16 11:02:38;;;;;;;5.53;1.35;;;23.10;69.20;;;;;;5109463;28;20118;-71
2022/07/16 11:05:04;;;;;;;2.72;0.93;;;23.10;67.50;;;;;;5108197;28;20055;-71
2022/07/16 11:07:34;;;;;;;7.00;1.10;;;23.30;67.60;;;;;;5110100;28;20047;-72
2022/07/16 11:10:00;;;;;;;4.18;1.20;;;23.10;65.90;;;;;;5108439;28;20040;-71
2022/07/16 11:12:29;;;;;;;3.30;0.88;;;23.00;66.70;;;;;;5107361;28;20486;-72
2022/07/16 11:14:58;;;;;;;4.28;1.05;;;23.10;66.70;;;;;;5108167;28;20054;-71
2022/07/16 11:17:27;;;;;;;3.97;0.82;;;23.30;66.30;;;;;;5108167;28;20120;-72
2022/07/16 11:19:57;;;;;;;3.75;0.75;;;23.20;66.90;;;;;;5107706;28;20043;-71
2022/07/16 11:22:26;;;;;;;5.10;1.15;;;23.10;67.50;;;;;;5109535;28;20059;-71
2022/07/16 11:25:00;;;;;;;5.10;0.90;;;23.00;68.00;;;;;;5107213;28;20067;-72
2022/07/16 11:27:32;;;;;;;4.28;0.80;;;22.90;68.50;;;;;;5109237;28;20347;-72
2022/07/16 11:29:59;;;;;;;2.83;0.80;;;23.00;68.80;;;;;;5092715;27;20079;-71
2022/07/16 11:32:25;;;;;;;6.40;1.10;;;23.10;69.00;;;;;;5108334;28;20464;-72
2022/07/16 11:34:52;;;;;;;7.55;1.05;;;23.20;68.70;;;;;;5108016;28;20111;-71
2022/07/16 11:37:17;;;;;;;3.92;1.00;;;23.40;68.60;;;;;;5109078;28;20143;-71
2022/07/16 11:39:43;;;;;;;6.68;1.23;;;23.70;68.10;;;;;;5088923;28;20119;-70
2022/07/16 11:42:09;;;;;;;7.22;1.08;;;23.80;67.80;;;;;;5108170;28;20415;-71
2022/07/16 11:44:38;;;;;;;5.18;1.17;;;23.90;68.00;;;;;;5109322;28;20047;-72
2022/07/16 11:47:07;;;;;;;5.25;1.10;;;23.70;68.00;;;;;;5106079;28;20040;-72
2022/07/16 11:49:38;;;;;;;4.80;1.15;;;23.50;68.10;;;;;;5098247;28;20074;-72
2022/07/16 11:52:08;;;;;;;4.80;1.00;;;23.20;68.70;;;;;;5108220;28;20048;-72
2022/07/16 11:54:39;;;;;;;5.05;1.00;;;23.10;69.40;;;;;;5108257;28;20502;-72
2022/07/16 11:57:07;;;;;;;3.67;1.02;;;23.20;69.50;;;;;;5106750;28;20110;-71
2022/07/16 11:59:33;;;;;;;5.10;1.15;;;23.20;69.60;;;;;;5108521;28;20169;-72
2022/07/16 12:02:10;;;;;;;6.88;1.20;;;23.20;69.80;;;;;;5106883;28;20119;-72
2022/07/16 12:04:40;;;;;;;4.75;0.80;;;23.40;69.70;;;;;;5095792;28;20070;-71
2022/07/16 12:07:30;;;;;;;5.63;1.10;;;23.50;68.90;;;;;;5107119;28;20114;-72
2022/07/16 12:09:59;;;;;;;4.25;1.00;;;23.60;68.90;;;;;;5105116;28;20120;-72
2022/07/16 12:12:30;;;;;;;4.93;1.00;;;23.70;68.90;;;;;;5108037;28;20036;-70
2022/07/16 12:14:58;;;;;;;4.30;1.00;;;23.50;67.30;;;;;;5106568;28;20445;-70
2022/07/16 12:17:38;;;;;;;4.90;1.00;;;23.30;67.70;;;;;;5107180;28;20039;-70
2022/07/16 12:20:15;;;;;;;5.45;1.13;;;23.30;68.20;;;;;;5106252;28;20043;-70
2022/07/16 12:22:58;;;;;;;6.75;1.52;;;23.50;68.60;;;;;;5108328;28;20123;-70
2022/07/16 12:25:27;;;;;;;6.35;1.27;;;23.20;68.80;;;;;;5108406;28;20040;-70
2022/07/16 12:27:57;;;;;;;5.07;1.20;;;22.90;68.70;;;;;;5107054;28;20143;-72
2022/07/16 12:30:45;;;;;;;4.05;1.00;;;22.90;68.70;;;;;;5106850;28;20138;-72
2022/07/16 12:33:22;;;;;;;4.03;0.90;;;23.10;67.90;;;;;;5107267;28;20062;-72
2022/07/16 12:36:07;;;;;;;4.70;1.30;;;23.20;66.70;;;;;;5106623;28;20048;-71
2022/07/16 12:38:45;;;;;;;6.18;1.27;;;23.40;68.10;;;;;;5095660;28;20360;-73
2022/07/16 12:41:23;;;;;;;5.22;1.00;;;23.90;67.00;;;;;;5107278;28;20047;-72
2022/07/16 12:43:55;;;;;;;5.68;1.27;;;23.90;67.00;;;;;;5107266;28;20482;-72
2022/07/16 12:46:26;;;;;;;4.90;0.82;;;24.00;67.80;;;;;;5107335;28;20126;-72
2022/07/16 12:49:00;;;;;;;5.22;1.20;;;24.10;66.60;;;;;;5106077;28;20051;-72
2022/07/16 12:51:29;;;;;;;3.20;1.00;;;24.20;65.40;;;;;;5106635;28;20039;-72
2022/07/16 12:53:56;;;;;;;4.20;0.82;;;24.40;64.40;;;;;;5107863;28;20046;-70
2022/07/16 12:59:06;;;;;;;5.50;1.00;;;24.30;63.30;;;;;;5107339;28;20059;-71